createdAt,value
2023-05-19T00:00:51.065Z,12.42
2023-05-19T00:01:50.194Z,12.45
2023-05-19T00:02:50.303Z,12.34
2023-05-19T00:03:50.198Z,12.35
2023-05-19T00:04:50.209Z,12.35
2023-05-19T00:05:50.233Z,12.29
2023-05-19T00:06:50.190Z,12.23
2023-05-19T00:07:50.190Z,12.20
2023-05-19T00:08:50.186Z,12.23
2023-05-19T00:09:50.191Z,12.21
2023-05-19T00:10:50.209Z,12.23
2023-05-19T00:11:50.218Z,12.14
2023-05-19T00:12:50.927Z,12.20
2023-05-19T00:13:50.187Z,12.07
2023-05-19T00:14:50.187Z,12.10
2023-05-19T00:15:50.239Z,12.05
2023-05-19T00:16:50.201Z,12.10
2023-05-19T00:17:50.280Z,12.07
2023-05-19T00:18:50.207Z,12.05
2023-05-19T00:19:50.201Z,12.09
2023-05-19T00:20:50.248Z,12.12
2023-05-19T00:21:50.184Z,12.05
2023-05-19T00:22:50.212Z,12.10
2023-05-19T00:23:50.257Z,12.07
2023-05-19T00:24:50.250Z,12.07
2023-05-19T00:25:50.236Z,12.12
2023-05-19T00:26:50.174Z,11.98
2023-05-19T00:27:50.199Z,11.99
2023-05-19T00:28:50.213Z,11.95
2023-05-19T00:29:50.179Z,11.94
2023-05-19T00:30:50.177Z,11.98
2023-05-19T00:31:50.207Z,11.96
2023-05-19T00:32:50.226Z,11.94
2023-05-19T00:33:50.198Z,12.04
2023-05-19T00:34:50.225Z,12.02
2023-05-19T00:35:50.178Z,11.90
2023-05-19T00:36:50.204Z,11.99
2023-05-19T00:37:50.180Z,12.01
2023-05-19T00:38:50.191Z,12.02
2023-05-19T00:39:50.174Z,11.99
2023-05-19T00:40:50.167Z,11.98
2023-05-19T00:41:50.185Z,11.96
2023-05-19T00:42:50.167Z,11.96
2023-05-19T00:43:50.174Z,12.05
2023-05-19T00:44:50.171Z,11.91
2023-05-19T00:45:50.173Z,11.94
2023-05-19T00:46:50.257Z,11.96
2023-05-19T00:47:50.197Z,11.99
2023-05-19T00:48:50.163Z,11.95
2023-05-19T00:49:50.169Z,12.01
2023-05-19T00:50:50.171Z,11.90
2023-05-19T00:51:50.168Z,11.86
2023-05-19T00:52:50.187Z,11.86
2023-05-19T00:53:50.167Z,11.88
2023-05-19T00:54:50.168Z,11.86
2023-05-19T00:55:50.167Z,11.73
2023-05-19T00:56:50.162Z,11.73
2023-05-19T00:57:50.163Z,11.73
2023-05-19T00:58:50.161Z,11.82
2023-05-19T00:59:50.166Z,11.75
2023-05-19T01:00:50.227Z,11.69
2023-05-19T01:01:50.165Z,11.70
2023-05-19T01:02:50.214Z,11.72
2023-05-19T01:03:50.222Z,11.75
2023-05-19T01:04:50.167Z,11.79
2023-05-19T01:05:50.173Z,11.76
2023-05-19T01:06:50.158Z,11.73
2023-05-19T01:07:50.159Z,11.78
2023-05-19T01:08:50.176Z,11.82
2023-05-19T01:09:50.156Z,11.82
2023-05-19T01:10:50.152Z,11.76
2023-05-19T01:11:50.157Z,11.70
2023-05-19T01:12:50.165Z,11.67
2023-05-19T01:13:50.157Z,11.67
2023-05-19T01:14:50.167Z,11.78
2023-05-19T01:15:50.161Z,11.70
2023-05-19T01:16:50.296Z,11.76
2023-05-19T01:17:50.196Z,11.70
2023-05-19T01:18:50.207Z,11.70
2023-05-19T01:19:50.159Z,11.67
2023-05-19T01:20:50.160Z,11.64
2023-05-19T01:21:50.158Z,11.65
2023-05-19T01:22:50.152Z,11.55
2023-05-19T01:23:50.149Z,11.54
2023-05-19T01:24:50.174Z,11.55
2023-05-19T01:25:50.148Z,11.51
2023-05-19T01:26:50.143Z,11.52
2023-05-19T01:27:50.146Z,11.51
2023-05-19T01:28:50.148Z,11.36
2023-05-19T01:29:50.150Z,11.42
2023-05-19T01:30:50.161Z,11.51
2023-05-19T01:31:50.175Z,11.36
2023-05-19T01:32:50.187Z,11.37
2023-05-19T01:33:50.144Z,11.35
2023-05-19T01:34:50.138Z,11.40
2023-05-19T01:35:50.141Z,11.35
2023-05-19T01:36:50.133Z,11.25
2023-05-19T01:37:50.139Z,11.21
2023-05-19T01:38:50.135Z,11.22
2023-05-19T01:39:50.143Z,11.19
2023-05-19T01:40:50.155Z,11.10
2023-05-19T01:41:50.138Z,11.21
2023-05-19T01:42:50.165Z,11.18
2023-05-19T01:43:50.136Z,11.14
2023-05-19T01:44:50.141Z,11.09
2023-05-19T01:45:50.153Z,11.09
2023-05-19T01:46:50.144Z,11.19
2023-05-19T01:47:50.177Z,11.15
2023-05-19T01:48:50.139Z,11.14
2023-05-19T01:49:50.130Z,11.10
2023-05-19T01:50:50.132Z,11.09
2023-05-19T01:51:50.133Z,11.17
2023-05-19T01:52:50.134Z,11.09
2023-05-19T01:53:50.128Z,11.15
2023-05-19T01:54:50.149Z,11.15
2023-05-19T01:55:50.128Z,11.04
2023-05-19T01:56:50.147Z,11.11
2023-05-19T01:57:50.132Z,11.03
2023-05-19T01:58:50.138Z,11.06
2023-05-19T01:59:50.126Z,11.00
2023-05-19T02:00:50.209Z,11.02
2023-05-19T02:01:50.126Z,11.03
2023-05-19T02:02:50.194Z,11.04
2023-05-19T02:03:50.123Z,11.09
2023-05-19T02:04:50.193Z,11.15
2023-05-19T02:05:50.116Z,11.19
2023-05-19T02:06:50.127Z,11.15
2023-05-19T02:07:50.127Z,11.11
2023-05-19T02:08:50.118Z,11.10
2023-05-19T02:09:50.117Z,11.07
2023-05-19T02:10:50.115Z,11.07
2023-05-19T02:11:50.117Z,11.02
2023-05-19T02:12:50.139Z,11.03
2023-05-19T02:13:50.117Z,11.00
2023-05-19T02:14:50.112Z,10.96
2023-05-19T02:15:50.125Z,10.92
2023-05-19T02:16:50.105Z,10.89
2023-05-19T02:17:50.217Z,10.86
2023-05-19T02:18:50.142Z,10.86
2023-05-19T02:19:50.103Z,10.85
2023-05-19T02:20:50.108Z,10.86
2023-05-19T02:21:50.108Z,10.88
2023-05-19T02:22:50.096Z,10.91
2023-05-19T02:23:50.101Z,10.92
2023-05-19T02:24:50.097Z,10.94
2023-05-19T02:25:50.095Z,10.91
2023-05-19T02:26:50.107Z,11.02
2023-05-19T02:27:50.098Z,10.99
2023-05-19T02:28:50.185Z,10.97
2023-05-19T02:29:50.092Z,11.03
2023-05-19T02:30:50.095Z,11.03
2023-05-19T02:31:50.183Z,10.92
2023-05-19T02:32:50.121Z,10.88
2023-05-19T02:33:50.095Z,10.94
2023-05-19T02:34:50.088Z,10.97
2023-05-19T02:35:50.091Z,11.03
2023-05-19T02:36:50.130Z,11.15
2023-05-19T02:37:50.085Z,11.11
2023-05-19T02:38:50.081Z,11.17
2023-05-19T02:39:50.078Z,11.17
2023-05-19T02:40:50.078Z,11.27
2023-05-19T02:41:50.088Z,11.24
2023-05-19T02:42:50.078Z,11.37
2023-05-19T02:43:50.078Z,11.37
2023-05-19T02:44:50.094Z,11.27
2023-05-19T02:45:50.092Z,11.40
2023-05-19T02:46:50.121Z,11.51
2023-05-19T02:47:50.107Z,11.44
2023-05-19T02:48:50.068Z,11.39
2023-05-19T02:49:50.087Z,11.40
2023-05-19T02:50:50.071Z,11.37
2023-05-19T02:51:50.073Z,11.42
2023-05-19T02:52:50.081Z,11.51
2023-05-19T02:53:50.066Z,11.39
2023-05-19T02:54:50.062Z,11.39
2023-05-19T02:55:50.063Z,11.33
2023-05-19T02:56:50.061Z,11.35
2023-05-19T02:57:50.068Z,11.46
2023-05-19T02:58:50.067Z,11.37
2023-05-19T02:59:50.069Z,11.29
2023-05-19T03:00:50.084Z,11.40
2023-05-19T03:01:50.148Z,11.39
2023-05-19T03:02:50.155Z,11.37
2023-05-19T03:03:50.171Z,11.40
2023-05-19T03:04:50.064Z,11.40
2023-05-19T03:05:50.057Z,11.39
2023-05-19T03:06:50.064Z,11.37
2023-05-19T03:07:50.059Z,11.32
2023-05-19T03:08:50.054Z,11.35
2023-05-19T03:09:50.046Z,11.39
2023-05-19T03:10:50.047Z,11.28
2023-05-19T03:11:50.053Z,11.29
2023-05-19T03:12:50.047Z,11.39
2023-05-19T03:13:50.057Z,11.40
2023-05-19T03:14:50.045Z,11.27
2023-05-19T03:15:50.101Z,11.29
2023-05-19T03:16:50.152Z,11.51
2023-05-19T03:17:50.145Z,11.57
2023-05-19T03:18:50.059Z,11.60
2023-05-19T03:19:50.048Z,11.49
2023-05-19T03:20:50.037Z,11.52
2023-05-19T03:21:50.045Z,11.52
2023-05-19T03:22:50.043Z,11.51
2023-05-19T03:23:50.038Z,11.52
2023-05-19T03:24:50.038Z,11.54
2023-05-19T03:25:50.039Z,11.58
2023-05-19T03:26:50.041Z,11.47
2023-05-19T03:27:50.053Z,11.46
2023-05-19T03:28:50.038Z,11.44
2023-05-19T03:29:50.041Z,11.58
2023-05-19T03:30:50.051Z,11.60
2023-05-19T03:31:50.037Z,11.57
2023-05-19T03:32:50.153Z,11.58
2023-05-19T03:33:50.031Z,11.54
2023-05-19T03:34:50.027Z,11.58
2023-05-19T03:35:50.032Z,11.58
2023-05-19T03:36:50.019Z,11.55
2023-05-19T03:37:50.049Z,11.51
2023-05-19T03:38:50.027Z,11.61
2023-05-19T03:39:50.029Z,11.61
2023-05-19T03:40:50.046Z,11.55
2023-05-19T03:41:50.025Z,11.54
2023-05-19T03:42:50.028Z,11.49
2023-05-19T03:43:50.028Z,11.52
2023-05-19T03:44:50.046Z,11.47
2023-05-19T03:45:50.091Z,11.40
2023-05-19T03:46:50.025Z,11.49
2023-05-19T03:47:50.127Z,11.49
2023-05-19T03:48:50.054Z,11.57
2023-05-19T03:49:50.011Z,11.57
2023-05-19T03:50:50.016Z,11.55
2023-05-19T03:51:50.009Z,11.64
2023-05-19T03:52:50.022Z,11.61
2023-05-19T03:53:50.025Z,11.57
2023-05-19T03:54:50.010Z,11.65
2023-05-19T03:55:50.009Z,11.55
2023-05-19T03:56:50.027Z,11.60
2023-05-19T03:57:50.008Z,11.70
2023-05-19T03:58:50.006Z,11.72
2023-05-19T03:59:50.012Z,11.69
2023-05-19T04:00:50.004Z,11.70
2023-05-19T04:01:50.001Z,11.58
2023-05-19T04:02:50.102Z,11.58
2023-05-19T04:03:50.007Z,11.60
2023-05-19T04:04:50.154Z,11.60
2023-05-19T04:05:50.006Z,11.60
2023-05-19T04:06:50.001Z,11.70
2023-05-19T04:07:50.006Z,11.73
2023-05-19T04:08:49.997Z,11.78
2023-05-19T04:09:49.994Z,11.75
2023-05-19T04:10:49.992Z,11.76
2023-05-19T04:11:49.994Z,11.79
2023-05-19T04:12:49.996Z,11.86
2023-05-19T04:13:49.995Z,11.94
2023-05-19T04:14:49.988Z,12.02
2023-05-19T04:15:50.005Z,11.96
2023-05-19T04:16:50.009Z,12.05
2023-05-19T04:17:50.029Z,12.07
2023-05-19T04:18:50.050Z,11.98
2023-05-19T04:19:49.988Z,12.07
2023-05-19T04:20:50.009Z,12.12
2023-05-19T04:21:49.986Z,12.14
2023-05-19T04:22:49.980Z,12.17
2023-05-19T04:23:50.000Z,12.19
2023-05-19T04:24:49.976Z,12.23
2023-05-19T04:25:49.977Z,12.16
2023-05-19T04:26:49.974Z,12.24
2023-05-19T04:27:49.980Z,12.17
2023-05-19T04:28:49.987Z,12.24
2023-05-19T04:29:50.035Z,12.29
2023-05-19T04:30:49.992Z,12.28
2023-05-19T04:31:49.966Z,12.39
2023-05-19T04:32:50.024Z,12.47
2023-05-19T04:33:49.966Z,12.45
2023-05-19T04:34:49.972Z,12.49
2023-05-19T04:35:49.964Z,12.39
2023-05-19T04:36:53.111Z,12.41
2023-05-19T04:37:49.986Z,12.47
2023-05-19T04:38:49.967Z,12.39
2023-05-19T04:39:49.964Z,12.39
2023-05-19T04:40:49.962Z,12.45
2023-05-19T04:41:49.959Z,12.57
2023-05-19T04:42:49.963Z,12.64
2023-05-19T04:43:49.963Z,12.71
2023-05-19T04:44:49.965Z,12.75
2023-05-19T04:45:49.955Z,12.79
2023-05-19T04:46:50.086Z,12.78
2023-05-19T04:47:49.985Z,12.83
2023-05-19T04:48:49.961Z,12.92
2023-05-19T04:49:49.952Z,12.92
2023-05-19T04:50:49.959Z,12.97
2023-05-19T04:51:49.956Z,13.11
2023-05-19T04:52:49.973Z,13.04
2023-05-19T04:53:49.950Z,13.07
2023-05-19T04:54:49.953Z,13.20
2023-05-19T04:55:49.948Z,13.15
2023-05-19T04:56:49.952Z,13.25
2023-05-19T04:57:49.952Z,13.26
2023-05-19T04:58:49.954Z,13.30
2023-05-19T04:59:49.944Z,13.33
2023-05-19T05:00:49.942Z,13.36
2023-05-19T05:01:49.973Z,13.39
2023-05-19T05:02:50.074Z,13.38
2023-05-19T05:03:49.962Z,13.49
2023-05-19T05:04:49.941Z,13.60
2023-05-19T05:05:49.938Z,13.60
2023-05-19T05:06:49.942Z,13.70
2023-05-19T05:07:49.935Z,13.79
2023-05-19T05:08:49.970Z,13.71
2023-05-19T05:09:49.929Z,13.82
2023-05-19T05:10:49.932Z,13.84
2023-05-19T05:11:49.932Z,13.88
2023-05-19T05:12:49.947Z,13.82
2023-05-19T05:13:49.926Z,13.95
2023-05-19T05:14:49.944Z,13.97
2023-05-19T05:15:49.932Z,14.06
2023-05-19T05:16:50.005Z,14.04
2023-05-19T05:17:49.974Z,14.20
2023-05-19T05:18:49.936Z,14.24
2023-05-19T05:19:49.926Z,14.21
2023-05-19T05:20:49.923Z,14.22
2023-05-19T05:21:49.925Z,14.35
2023-05-19T05:22:49.925Z,14.43
2023-05-19T05:23:49.925Z,14.52
2023-05-19T05:24:49.949Z,14.64
2023-05-19T05:25:49.912Z,14.70
2023-05-19T05:26:49.941Z,14.84
2023-05-19T05:27:49.916Z,14.92
2023-05-19T05:28:49.917Z,14.99
2023-05-19T05:29:51.576Z,15.06
2023-05-19T05:30:49.919Z,15.07
2023-05-19T05:31:49.915Z,15.13
2023-05-19T05:32:50.005Z,15.20
2023-05-19T05:33:49.928Z,15.19
2023-05-19T05:34:49.915Z,15.28
2023-05-19T05:35:49.913Z,15.36
2023-05-19T05:36:49.916Z,15.29
2023-05-19T05:37:49.912Z,15.31
2023-05-19T05:38:49.915Z,15.29
2023-05-19T05:39:49.910Z,15.29
2023-05-19T05:40:49.935Z,15.34
2023-05-19T05:41:49.921Z,15.43
2023-05-19T05:42:49.912Z,15.41
2023-05-19T05:43:49.911Z,15.46
2023-05-19T05:44:49.912Z,15.44
2023-05-19T05:45:49.929Z,15.47
2023-05-19T05:46:49.916Z,15.56
2023-05-19T05:47:49.936Z,15.64
2023-05-19T05:48:49.913Z,15.84
2023-05-19T05:49:52.127Z,15.89
2023-05-19T05:50:49.916Z,15.96
2023-05-19T05:52:01.910Z,15.94
2023-05-19T05:52:49.908Z,16.02
2023-05-19T05:53:49.911Z,15.93
2023-05-19T05:54:49.919Z,15.94
2023-05-19T05:55:49.906Z,16.15
2023-05-19T05:56:49.935Z,16.09
2023-05-19T05:57:49.908Z,16.09
2023-05-19T05:58:49.911Z,16.21
2023-05-19T05:59:49.908Z,16.24
2023-05-19T06:00:49.910Z,16.20
2023-05-19T06:01:49.916Z,16.21
2023-05-19T06:02:49.996Z,16.17
2023-05-19T06:03:49.956Z,16.30
2023-05-19T06:04:49.910Z,16.31
2023-05-19T06:05:49.972Z,16.34
2023-05-19T06:06:49.923Z,16.57
2023-05-19T06:07:49.913Z,16.58
2023-05-19T06:08:50.240Z,16.64
2023-05-19T06:09:49.927Z,16.68
2023-05-19T06:10:49.905Z,16.66
2023-05-19T06:11:49.908Z,16.68
2023-05-19T06:12:50.074Z,16.68
2023-05-19T06:13:50.227Z,16.70
2023-05-19T06:14:50.272Z,16.75
2023-05-19T06:15:49.917Z,16.83
2023-05-19T06:16:49.912Z,16.86
2023-05-19T06:17:49.921Z,17.00
2023-05-19T06:18:49.928Z,17.00
2023-05-19T06:19:49.906Z,17.00
2023-05-19T06:20:49.907Z,17.12
2023-05-19T06:21:49.914Z,17.19
2023-05-19T06:22:49.911Z,17.33
2023-05-19T06:23:49.906Z,17.30
2023-05-19T06:24:49.915Z,17.43
2023-05-19T06:25:49.918Z,17.51
2023-05-19T06:26:49.918Z,17.62
2023-05-19T06:27:49.908Z,17.75
2023-05-19T06:28:50.070Z,17.79
2023-05-19T06:29:49.913Z,17.90
2023-05-19T06:30:49.918Z,17.90
2023-05-19T06:31:50.059Z,18.08
2023-05-19T06:32:50.005Z,18.00
2023-05-19T06:33:49.911Z,18.07
2023-05-19T06:34:49.908Z,18.15
2023-05-19T06:35:49.910Z,18.18
2023-05-19T06:36:49.915Z,18.26
2023-05-19T06:37:49.909Z,18.26
2023-05-19T06:38:49.908Z,18.37
2023-05-19T06:39:49.904Z,18.37
2023-05-19T06:40:49.906Z,18.54
2023-05-19T06:41:49.926Z,18.65
2023-05-19T06:42:49.919Z,18.65
2023-05-19T06:43:49.910Z,18.62
2023-05-19T06:44:49.931Z,18.62
2023-05-19T06:45:49.902Z,18.60
2023-05-19T06:46:49.974Z,18.66
2023-05-19T06:47:49.956Z,18.70
2023-05-19T06:48:49.932Z,18.85
2023-05-19T06:49:49.909Z,18.75
2023-05-19T06:50:49.920Z,18.73
2023-05-19T06:51:49.908Z,18.84
2023-05-19T06:52:49.915Z,18.88
2023-05-19T06:53:49.904Z,18.99
2023-05-19T06:54:49.955Z,18.98
2023-05-19T06:55:58.710Z,19.00
2023-05-19T06:56:49.974Z,18.99
2023-05-19T06:57:49.940Z,19.06
2023-05-19T06:59:50.016Z,19.21
2023-05-19T07:00:49.983Z,19.11
2023-05-19T07:01:50.033Z,19.14
2023-05-19T07:02:50.068Z,19.28
2023-05-19T07:03:50.328Z,19.32
2023-05-19T07:04:49.942Z,19.43
2023-05-19T07:05:49.945Z,19.40
2023-05-19T07:06:49.955Z,19.32
2023-05-19T07:07:49.966Z,19.51
2023-05-19T07:08:50.013Z,19.40
2023-05-19T07:09:49.968Z,19.50
2023-05-19T07:10:49.982Z,19.63
2023-05-19T07:11:49.972Z,19.66
2023-05-19T07:12:49.966Z,19.65
2023-05-19T07:13:50.013Z,19.78
2023-05-19T07:14:49.961Z,19.83
2023-05-19T07:15:49.969Z,19.87
2023-05-19T07:16:50.063Z,19.95
2023-05-19T07:17:50.009Z,19.94
2023-05-19T07:18:49.986Z,20.05
2023-05-19T07:19:49.964Z,20.03
2023-05-19T07:20:49.925Z,20.02
2023-05-19T07:21:49.927Z,20.17
2023-05-19T07:22:49.926Z,20.20
2023-05-19T07:23:49.933Z,20.29
2023-05-19T07:24:49.924Z,20.29
2023-05-19T07:25:49.932Z,20.38
2023-05-19T07:26:49.923Z,20.59
2023-05-19T07:27:49.940Z,20.72
2023-05-19T07:28:49.950Z,20.88
2023-05-19T07:29:49.937Z,20.79
2023-05-19T07:30:49.967Z,20.74
2023-05-19T07:31:49.986Z,20.76
2023-05-19T07:32:50.006Z,20.84
2023-05-19T07:33:50.342Z,20.91
2023-05-19T07:34:49.928Z,20.95
2023-05-19T07:35:49.953Z,20.99
2023-05-19T07:36:50.002Z,20.97
2023-05-19T07:37:49.941Z,21.14
2023-05-19T07:38:49.948Z,21.24
2023-05-19T07:39:49.935Z,21.28
2023-05-19T07:40:49.929Z,21.49
2023-05-19T07:41:49.980Z,21.75
2023-05-19T07:42:49.932Z,21.90
2023-05-19T07:43:49.938Z,22.42
2023-05-19T07:44:49.936Z,22.80
2023-05-19T07:45:49.981Z,23.27
2023-05-19T07:46:49.946Z,23.68
2023-05-19T07:47:49.972Z,24.21
2023-05-19T07:48:49.986Z,24.65
2023-05-19T07:49:51.904Z,24.99
2023-05-19T07:50:49.936Z,25.43
2023-05-19T07:51:49.944Z,25.64
2023-05-19T07:52:49.942Z,25.61
2023-05-19T07:53:49.948Z,25.54
2023-05-19T07:54:49.951Z,25.52
2023-05-19T07:55:49.948Z,25.82
2023-05-19T07:56:49.959Z,26.26
2023-05-19T07:57:49.954Z,26.40
2023-05-19T07:58:49.946Z,26.58
2023-05-19T07:59:49.968Z,26.75
2023-05-19T08:00:49.955Z,26.65
2023-05-19T08:01:49.968Z,26.73
2023-05-19T08:02:50.065Z,27.28
2023-05-19T08:03:50.176Z,27.60
2023-05-19T08:04:50.184Z,27.87
2023-05-19T08:05:49.969Z,28.00
2023-05-19T08:06:49.978Z,28.18
2023-05-19T08:07:49.983Z,28.37
2023-05-19T08:08:49.992Z,28.36
2023-05-19T08:09:49.981Z,28.44
2023-05-19T08:10:49.996Z,28.81
2023-05-19T08:11:50.030Z,29.09
2023-05-19T08:12:50.003Z,29.08
2023-05-19T08:13:50.008Z,29.02
2023-05-19T08:14:50.010Z,29.02
2023-05-19T08:15:50.138Z,29.05
2023-05-19T08:16:50.030Z,28.89
2023-05-19T08:17:50.078Z,28.67
2023-05-19T08:18:50.052Z,28.76
2023-05-19T08:19:50.040Z,28.74
2023-05-19T08:20:50.105Z,28.81
2023-05-19T08:21:50.073Z,28.67
2023-05-19T08:22:50.080Z,28.90
2023-05-19T08:23:50.079Z,29.21
2023-05-19T08:24:50.085Z,29.61
2023-05-19T08:25:50.095Z,30.04
2023-05-19T08:26:50.100Z,30.10
2023-05-19T08:27:50.103Z,30.20
2023-05-19T08:28:50.184Z,30.47
2023-05-19T08:29:50.124Z,30.43
2023-05-19T08:30:50.133Z,30.46
2023-05-19T08:31:50.163Z,30.82
2023-05-19T08:32:50.170Z,30.99
2023-05-19T08:33:50.169Z,31.20
2023-05-19T08:34:50.179Z,31.43
2023-05-19T08:35:50.187Z,31.01
2023-05-19T08:36:50.243Z,30.86
2023-05-19T08:37:50.214Z,30.57
2023-05-19T08:38:50.241Z,31.06
2023-05-19T08:39:50.237Z,30.97
2023-05-19T08:40:50.281Z,30.92
2023-05-19T08:41:50.259Z,30.49
2023-05-19T08:42:50.287Z,30.67
2023-05-19T08:43:50.294Z,30.69
2023-05-19T08:44:50.305Z,30.70
2023-05-19T08:45:50.313Z,30.57
2023-05-19T08:46:50.376Z,30.02
2023-05-19T08:47:50.417Z,30.37
2023-05-19T08:48:50.354Z,30.22
2023-05-19T08:49:50.365Z,30.45
2023-05-19T08:50:50.383Z,30.57
2023-05-19T08:51:50.399Z,30.80
2023-05-19T08:52:52.786Z,30.98
2023-05-19T08:53:50.442Z,31.07
2023-05-19T08:54:50.454Z,31.04
2023-05-19T08:55:50.474Z,30.97
2023-05-19T08:56:50.466Z,30.42
2023-05-19T08:57:50.486Z,30.38
2023-05-19T08:58:50.510Z,30.39
2023-05-19T08:59:50.535Z,30.16
2023-05-19T09:00:50.577Z,30.20
2023-05-19T09:01:50.545Z,30.34
2023-05-19T09:03:00.155Z,30.37
2023-05-19T09:03:50.818Z,30.24
2023-05-19T09:04:50.674Z,30.42
2023-05-19T09:05:50.647Z,30.79
2023-05-19T09:06:50.634Z,30.60
2023-05-19T09:07:50.639Z,30.67
2023-05-19T09:08:50.700Z,30.45
2023-05-19T09:09:50.674Z,29.82
2023-05-19T09:10:50.699Z,29.82
2023-05-19T09:11:50.720Z,30.67
2023-05-19T09:12:50.737Z,31.12
2023-05-19T09:13:50.761Z,30.64
2023-05-19T09:14:50.765Z,30.39
2023-05-19T09:15:50.775Z,30.54
2023-05-19T09:16:50.872Z,30.34
2023-05-19T09:17:50.901Z,29.89
2023-05-19T09:18:50.834Z,29.61
2023-05-19T09:19:50.838Z,29.15
2023-05-19T09:20:50.862Z,29.08
2023-05-19T09:21:50.889Z,28.61
2023-05-19T09:22:50.894Z,28.41
2023-05-19T09:23:50.906Z,28.44
2023-05-19T09:24:50.954Z,29.05
2023-05-19T09:25:50.945Z,29.36
2023-05-19T09:26:50.952Z,29.80
2023-05-19T09:27:50.961Z,29.73
2023-05-19T09:28:50.980Z,29.76
2023-05-19T09:29:50.990Z,29.73
2023-05-19T09:30:51.024Z,29.45
2023-05-19T09:31:51.067Z,29.06
2023-05-19T09:32:51.076Z,28.90
2023-05-19T09:33:51.061Z,28.51
2023-05-19T09:34:51.079Z,28.24
2023-05-19T09:35:51.080Z,28.31
2023-05-19T09:36:51.099Z,28.40
2023-05-19T09:37:51.115Z,28.66
2023-05-19T09:38:51.132Z,28.41
2023-05-19T09:39:51.135Z,28.40
2023-05-19T09:40:51.170Z,28.31
2023-05-19T09:41:51.167Z,28.18
2023-05-19T09:42:51.181Z,27.81
2023-05-19T09:43:51.193Z,27.44
2023-05-19T09:44:51.208Z,27.39
2023-05-19T09:45:51.243Z,27.67
2023-05-19T09:46:51.233Z,28.04
2023-05-19T09:47:51.325Z,28.70
2023-05-19T09:48:51.264Z,29.04
2023-05-19T09:49:51.267Z,29.08
2023-05-19T09:50:51.287Z,29.43
2023-05-19T09:51:51.303Z,29.67
2023-05-19T09:52:51.315Z,29.60
2023-05-19T09:53:51.324Z,29.30
2023-05-19T09:54:51.348Z,28.55
2023-05-19T09:55:51.367Z,28.14
2023-05-19T09:56:51.431Z,27.90
2023-05-19T09:57:51.377Z,28.14
2023-05-19T09:58:51.397Z,27.85
2023-05-19T09:59:51.406Z,27.57
2023-05-19T10:00:51.419Z,27.72
2023-05-19T10:01:51.475Z,27.78
2023-05-19T10:02:51.494Z,27.87
2023-05-19T10:03:51.454Z,27.79
2023-05-19T10:04:51.525Z,27.78
2023-05-19T10:05:51.475Z,27.96
2023-05-19T10:06:51.495Z,27.75
2023-05-19T10:07:51.587Z,27.81
2023-05-19T10:08:51.519Z,27.75
2023-05-19T10:09:51.527Z,27.79
2023-05-19T10:10:51.541Z,27.18
2023-05-19T10:11:51.553Z,27.10
2023-05-19T10:12:51.581Z,26.91
2023-05-19T10:13:51.569Z,27.25
2023-05-19T10:14:51.591Z,27.55
2023-05-19T10:15:58.344Z,28.03
2023-05-19T10:16:51.660Z,28.31
2023-05-19T10:17:51.660Z,28.41
2023-05-19T10:18:51.649Z,27.94
2023-05-19T10:19:51.634Z,27.36
2023-05-19T10:20:51.651Z,26.88
2023-05-19T10:21:51.661Z,26.57
2023-05-19T10:22:51.684Z,26.55
2023-05-19T10:23:51.681Z,26.62
2023-05-19T10:24:51.715Z,26.63
2023-05-19T10:25:51.723Z,26.51
2023-05-19T10:26:51.718Z,26.39
2023-05-19T10:27:51.726Z,26.17
2023-05-19T10:28:51.868Z,26.26
2023-05-19T10:29:51.746Z,26.28
2023-05-19T10:30:51.761Z,26.29
2023-05-19T10:31:51.862Z,26.44
2023-05-19T10:32:51.812Z,26.67
2023-05-19T10:33:51.784Z,26.30
2023-05-19T10:34:51.818Z,26.01
2023-05-19T10:35:51.808Z,25.69
2023-05-19T10:36:51.826Z,25.50
2023-05-19T10:37:51.827Z,25.20
2023-05-19T10:38:51.835Z,25.21
2023-05-19T10:39:51.853Z,25.46
2023-05-19T10:40:51.868Z,25.79
2023-05-19T10:41:51.861Z,26.10
2023-05-19T10:42:51.873Z,26.48
2023-05-19T10:43:51.876Z,26.63
2023-05-19T10:44:51.922Z,26.76
2023-05-19T10:45:51.902Z,26.58
2023-05-19T10:46:53.433Z,26.65
2023-05-19T10:47:52.003Z,26.69
2023-05-19T10:48:51.937Z,26.69
2023-05-19T10:49:51.928Z,26.65
2023-05-19T10:50:51.940Z,26.69
2023-05-19T10:51:51.949Z,26.62
2023-05-19T10:52:51.961Z,26.32
2023-05-19T10:53:51.969Z,26.12
2023-05-19T10:54:51.976Z,25.90
2023-05-19T10:55:51.981Z,25.88
2023-05-19T10:56:51.991Z,25.72
2023-05-19T10:57:51.996Z,25.52
2023-05-19T10:58:52.014Z,25.39
2023-05-19T10:59:52.027Z,25.46
2023-05-19T11:00:52.039Z,25.57
2023-05-19T11:01:52.048Z,25.95
2023-05-19T11:02:52.120Z,26.58
2023-05-19T11:03:52.124Z,27.31
2023-05-19T11:04:52.256Z,27.81
2023-05-19T11:05:52.062Z,28.00
2023-05-19T11:06:52.063Z,27.84
2023-05-19T11:07:52.068Z,27.55
2023-05-19T11:08:52.083Z,27.36
2023-05-19T11:09:52.108Z,27.32
2023-05-19T11:10:52.097Z,27.67
2023-05-19T11:11:52.091Z,27.81
2023-05-19T11:12:52.269Z,28.04
2023-05-19T11:13:52.116Z,28.30
2023-05-19T11:14:52.134Z,28.40
2023-05-19T11:15:52.135Z,28.89
2023-05-19T11:16:52.234Z,29.04
2023-05-19T11:17:52.208Z,28.59
2023-05-19T11:18:52.177Z,28.58
2023-05-19T11:19:52.166Z,28.81
2023-05-19T11:20:52.215Z,29.06
2023-05-19T11:21:52.191Z,29.08
2023-05-19T11:22:52.184Z,29.09
2023-05-19T11:23:52.240Z,29.02
2023-05-19T11:24:52.209Z,28.76
2023-05-19T11:25:52.207Z,28.43
2023-05-19T11:26:52.211Z,28.46
2023-05-19T11:27:52.224Z,28.41
2023-05-19T11:28:52.232Z,28.46
2023-05-19T11:29:52.232Z,28.54
2023-05-19T11:30:52.587Z,28.78
2023-05-19T11:31:52.304Z,28.76
2023-05-19T11:32:52.363Z,28.54
2023-05-19T11:33:52.269Z,28.48
2023-05-19T11:34:52.280Z,28.29
2023-05-19T11:35:52.285Z,28.17
2023-05-19T11:36:52.304Z,28.15
2023-05-19T11:37:52.324Z,27.94
2023-05-19T11:38:52.318Z,27.90
2023-05-19T11:39:52.354Z,28.03
2023-05-19T11:40:52.327Z,27.97
2023-05-19T11:41:52.331Z,28.03
2023-05-19T11:42:52.344Z,28.00
2023-05-19T11:43:52.352Z,28.03
2023-05-19T11:44:52.356Z,27.75
2023-05-19T11:45:52.408Z,27.69
2023-05-19T11:46:52.418Z,27.82
2023-05-19T11:48:52.427Z,28.46
2023-05-19T11:49:52.397Z,28.39
2023-05-19T11:50:52.435Z,28.56
2023-05-19T11:51:52.414Z,28.51
2023-05-19T11:52:52.429Z,28.49
2023-05-19T11:53:52.464Z,28.27
2023-05-19T11:54:52.452Z,28.17
2023-05-19T11:55:52.763Z,27.78
2023-05-19T11:56:52.466Z,27.41
2023-05-19T11:58:02.865Z,27.32
2023-05-19T11:58:52.466Z,27.66
2023-05-19T11:59:52.475Z,27.70
2023-05-19T12:00:52.499Z,27.99
2023-05-19T12:01:52.490Z,27.97
2023-05-19T12:02:52.660Z,28.04
2023-05-19T12:03:53.054Z,28.31
2023-05-19T12:04:52.622Z,28.44
2023-05-19T12:05:52.608Z,28.29
2023-05-19T12:06:52.525Z,28.22
2023-05-19T12:07:52.549Z,28.41
2023-05-19T12:08:52.546Z,28.30
2023-05-19T12:09:52.548Z,28.06
2023-05-19T12:10:52.559Z,27.70
2023-05-19T12:11:52.561Z,27.60
2023-05-19T12:12:52.572Z,27.17
2023-05-19T12:13:52.627Z,26.75
2023-05-19T12:14:52.630Z,26.23
2023-05-19T12:15:52.708Z,25.97
2023-05-19T12:16:52.677Z,25.45
2023-05-19T12:17:52.658Z,25.30
2023-05-19T12:18:52.697Z,25.15
2023-05-19T12:19:52.623Z,24.91
2023-05-19T12:20:52.646Z,25.21
2023-05-19T12:21:52.626Z,25.58
2023-05-19T12:22:52.671Z,25.70
2023-05-19T12:23:52.728Z,25.98
2023-05-19T12:24:52.649Z,26.32
2023-05-19T12:25:52.665Z,26.33
2023-05-19T12:26:52.656Z,26.35
2023-05-19T12:27:52.721Z,26.45
2023-05-19T12:28:52.688Z,26.70
2023-05-19T12:29:52.687Z,26.94
2023-05-19T12:30:52.683Z,27.06
2023-05-19T12:31:52.736Z,27.55
2023-05-19T12:32:52.734Z,27.41
2023-05-19T12:33:52.710Z,27.14
2023-05-19T12:34:52.710Z,27.44
2023-05-19T12:35:52.715Z,27.85
2023-05-19T12:36:52.752Z,28.19
2023-05-19T12:37:52.719Z,28.55
2023-05-19T12:38:52.725Z,28.93
2023-05-19T12:39:52.734Z,29.16
2023-05-19T12:40:52.735Z,29.26
2023-05-19T12:41:52.743Z,29.36
2023-05-19T12:42:52.747Z,29.71
2023-05-19T12:43:52.835Z,29.65
2023-05-19T12:44:52.783Z,28.71
2023-05-19T12:45:52.828Z,28.55
2023-05-19T12:46:52.774Z,27.99
2023-05-19T12:47:52.816Z,27.51
2023-05-19T12:48:52.776Z,27.21
2023-05-19T12:49:52.814Z,26.50
2023-05-19T12:50:52.801Z,26.29
2023-05-19T12:51:53.271Z,26.54
2023-05-19T12:52:52.821Z,26.99
2023-05-19T12:53:52.835Z,28.06
2023-05-19T12:54:52.849Z,28.98